National Weather Service Raw Text Product

Displaying AFOS PIL: TAFDSM Received: 2018-02-09 23:29 UTC


696 
FTUS43 KDMX 092329
TAFDSM
TAF
KDSM 092329Z 1000/1024 01010KT P6SM SCT070 OVC100
     FM100300 01007KT 4SM -SN SCT025 OVC040
     FM100500 01006KT 2SM -SN OVC030
     FM100900 36006KT 5SM -SN OVC030
     FM101200 35009KT P6SM SCT030 BKN060=